Airfield :
LOGIN :

Register | Disclaimer

   EN    FR    IT 

 










Legend :    VFR   Marginal VFR   IFR   Intensive IFR   Very Intensive IFR
Visi :
Ceiling :
>= 8 km
>= 3000ft
5 to 8 km
1000 to 3000 ft
1500m to 5 km
500 to 1000 ft
800 to 1500m
200 to 500 ft
< 800m
< 200 ft
Symbols :   Thunderstorms  Fog  Heavy snow  Heavy precipitations  Wind > 20 kt
SIGMETs :     Misc.  Thunderstorms  Icing  Turbulence  Mountain Waves  Volcanic Ashes






- Airport Elevation : 20 ft


EBFN - Koksijde

CURRENT METAR :
  • 172355Z AUTO 13003KT 0900 +RA BKN065/// OVC100/// 19/18 Q1014 AMB

EXPIRED METARs :
  • 172352Z AUTO 15003KT 1300 +RA BKN070/// OVC100/// 19/18 Q1014 AMB
  • 172335Z AUTO 07003KT 4900 FEW073/// OVC100/// 19/18 Q1013 GRN
  • 172255Z AUTO 03004KT 5000 -SHRA SCT030TCU BKN100/// 19/18 Q1013 WHT
  • 172225Z VRB02KT 5000 -SHRA SCT030TCU BKN100 19/18 Q1013 WHT
  • 172155Z 01003KT 5000 -SHRA SCT030TCU BKN100 19/18 Q1013 WHT
  • 172125Z 05004KT 5000 -SHRA SCT030TCU BKN100 19/18 Q1013 WHT

TAF TAF EBFN
Valid from the 17 at 19:00 until the 18 at 07:00 UTC


171541Z 1719/1807 35010KT 9999 FEW035 SCT080
TEMPO 1719/1807 VRB15G30KT 3000 SHRA SCT020TCU
PROB40
TEMPO 1721/1807 VRB20G35KT 2000 +TSRA TSRAGR SCT005 BKN012CB
BECMG 1802/1804 12005KT 4000 BR FEW025 BKN050



MET'MAP, your aeronautical weather chart ! - Copyright ORBIFLY December 2007 - Disclaimer

ORBIFLY MET'MAP TEAM :

Programming & Development : Alexandra Zaïnal
Concept & original design : Baudouin d'Aumeries
Assistance for programming : Marc-Olivier Méhu
Technical & hardware support : Manuel Goepfert

Contact : metmap@orbifly.com




SOURCES & CREDITS :

   NOAA